sensor_id;sensor_type;location;lat;lon;timestamp;P1;durP1;ratioP1;P2;durP2;ratioP2
77802;SDS011;66993;48.256;16.422;2023-10-13T00:00:07;14.4;;;8.6;;
77802;SDS011;66993;48.256;16.422;2023-10-13T00:05:07;17.8;;;8.9;;
77802;SDS011;66993;48.256;16.422;2023-10-13T00:10:09;15.9;;;8.9;;
77802;SDS011;66993;48.256;16.422;2023-10-13T00:15:10;19.2;;;9.5;;
77802;SDS011;66993;48.256;16.422;2023-10-13T00:20:11;16.1;;;8.8;;
77802;SDS011;66993;48.256;16.422;2023-10-13T00:25:12;15.0;;;9.3;;
77802;SDS011;66993;48.256;16.422;2023-10-13T00:30:14;19.2;;;10.2;;
77802;SDS011;66993;48.256;16.422;2023-10-13T00:35:15;17.4;;;9.3;;
77802;SDS011;66993;48.256;16.422;2023-10-13T00:40:16;19.9;;;10.2;;
77802;SDS011;66993;48.256;16.422;2023-10-13T00:45:17;19.3;;;10.1;;
77802;SDS011;66993;48.256;16.422;2023-10-13T00:50:19;16.9;;;10.4;;
77802;SDS011;66993;48.256;16.422;2023-10-13T00:55:20;20.3;;;11.0;;
77802;SDS011;66993;48.256;16.422;2023-10-13T01:00:22;17.5;;;9.8;;
77802;SDS011;66993;48.256;16.422;2023-10-13T01:05:23;21.9;;;12.5;;
77802;SDS011;66993;48.256;16.422;2023-10-13T01:10:24;19.9;;;10.5;;
77802;SDS011;66993;48.256;16.422;2023-10-13T01:15:25;21.8;;;11.7;;
77802;SDS011;66993;48.256;16.422;2023-10-13T01:20:26;20.5;;;11.7;;
77802;SDS011;66993;48.256;16.422;2023-10-13T01:25:28;21.1;;;12.2;;
77802;SDS011;66993;48.256;16.422;2023-10-13T01:30:29;22.4;;;12.9;;
77802;SDS011;66993;48.256;16.422;2023-10-13T01:35:30;21.2;;;12.2;;
77802;SDS011;66993;48.256;16.422;2023-10-13T01:40:32;22.8;;;13.2;;
77802;SDS011;66993;48.256;16.422;2023-10-13T01:45:33;22.5;;;13.7;;
77802;SDS011;66993;48.256;16.422;2023-10-13T01:50:36;22.8;;;13.2;;
77802;SDS011;66993;48.256;16.422;2023-10-13T01:55:35;23.5;;;13.9;;
77802;SDS011;66993;48.256;16.422;2023-10-13T02:00:37;25.0;;;15.5;;
77802;SDS011;66993;48.256;16.422;2023-10-13T02:05:38;24.5;;;14.6;;
77802;SDS011;66993;48.256;16.422;2023-10-13T02:10:39;27.4;;;16.0;;
77802;SDS011;66993;48.256;16.422;2023-10-13T02:15:40;24.7;;;14.8;;
77802;SDS011;66993;48.256;16.422;2023-10-13T02:20:42;24.4;;;14.0;;
77802;SDS011;66993;48.256;16.422;2023-10-13T02:25:43;30.3;;;15.7;;
77802;SDS011;66993;48.256;16.422;2023-10-13T02:30:45;29.3;;;16.5;;
77802;SDS011;66993;48.256;16.422;2023-10-13T02:35:46;27.2;;;15.7;;
77802;SDS011;66993;48.256;16.422;2023-10-13T02:40:47;23.7;;;14.3;;
77802;SDS011;66993;48.256;16.422;2023-10-13T02:45:51;21.9;;;13.5;;
77802;SDS011;66993;48.256;16.422;2023-10-13T02:50:55;23.8;;;13.5;;
77802;SDS011;66993;48.256;16.422;2023-10-13T02:55:51;18.7;;;11.5;;
77802;SDS011;66993;48.256;16.422;2023-10-13T03:00:53;20.2;;;12.1;;
77802;SDS011;66993;48.256;16.422;2023-10-13T03:05:53;21.7;;;13.7;;
77802;SDS011;66993;48.256;16.422;2023-10-13T03:10:55;21.2;;;12.4;;
77802;SDS011;66993;48.256;16.422;2023-10-13T03:15:56;28.9;;;14.3;;
77802;SDS011;66993;48.256;16.422;2023-10-13T03:20:57;24.8;;;13.4;;
77802;SDS011;66993;48.256;16.422;2023-10-13T03:25:58;28.8;;;15.3;;
77802;SDS011;66993;48.256;16.422;2023-10-13T03:31:00;24.5;;;14.4;;
77802;SDS011;66993;48.256;16.422;2023-10-13T03:36:01;29.7;;;17.2;;
77802;SDS011;66993;48.256;16.422;2023-10-13T03:41:03;28.1;;;16.1;;
77802;SDS011;66993;48.256;16.422;2023-10-13T03:46:04;25.5;;;15.1;;
77802;SDS011;66993;48.256;16.422;2023-10-13T03:51:05;33.7;;;18.3;;
77802;SDS011;66993;48.256;16.422;2023-10-13T03:56:06;33.4;;;18.5;;
77802;SDS011;66993;48.256;16.422;2023-10-13T04:01:08;32.6;;;18.8;;
77802;SDS011;66993;48.256;16.422;2023-10-13T04:06:09;26.8;;;14.5;;
77802;SDS011;66993;48.256;16.422;2023-10-13T04:11:10;29.0;;;16.5;;
77802;SDS011;66993;48.256;16.422;2023-10-13T04:16:12;23.0;;;14.2;;
77802;SDS011;66993;48.256;16.422;2023-10-13T04:21:13;26.9;;;15.2;;
77802;SDS011;66993;48.256;16.422;2023-10-13T04:26:14;24.4;;;14.7;;
77802;SDS011;66993;48.256;16.422;2023-10-13T04:31:16;25.6;;;15.6;;
77802;SDS011;66993;48.256;16.422;2023-10-13T04:36:17;33.1;;;17.7;;
77802;SDS011;66993;48.256;16.422;2023-10-13T04:41:18;25.0;;;15.3;;
77802;SDS011;66993;48.256;16.422;2023-10-13T04:46:19;23.7;;;14.4;;
77802;SDS011;66993;48.256;16.422;2023-10-13T04:51:21;25.6;;;14.8;;
77802;SDS011;66993;48.256;16.422;2023-10-13T04:56:22;23.6;;;13.4;;
77802;SDS011;66993;48.256;16.422;2023-10-13T05:01:23;24.0;;;14.0;;
77802;SDS011;66993;48.256;16.422;2023-10-13T05:06:25;27.7;;;15.6;;
77802;SDS011;66993;48.256;16.422;2023-10-13T05:11:26;29.0;;;16.7;;
77802;SDS011;66993;48.256;16.422;2023-10-13T05:16:27;27.0;;;15.3;;
77802;SDS011;66993;48.256;16.422;2023-10-13T05:21:29;25.3;;;14.5;;
77802;SDS011;66993;48.256;16.422;2023-10-13T05:26:30;27.4;;;16.3;;
77802;SDS011;66993;48.256;16.422;2023-10-13T05:31:31;28.0;;;15.7;;
77802;SDS011;66993;48.256;16.422;2023-10-13T05:36:33;35.9;;;17.7;;
77802;SDS011;66993;48.256;16.422;2023-10-13T05:41:33;28.6;;;16.9;;
77802;SDS011;66993;48.256;16.422;2023-10-13T05:46:35;37.7;;;20.1;;
77802;SDS011;66993;48.256;16.422;2023-10-13T05:51:36;32.3;;;17.8;;
77802;SDS011;66993;48.256;16.422;2023-10-13T05:56:37;25.9;;;15.7;;
77802;SDS011;66993;48.256;16.422;2023-10-13T06:01:39;28.6;;;16.2;;
77802;SDS011;66993;48.256;16.422;2023-10-13T06:06:40;27.9;;;16.4;;
77802;SDS011;66993;48.256;16.422;2023-10-13T06:11:41;24.4;;;15.6;;
77802;SDS011;66993;48.256;16.422;2023-10-13T06:16:42;24.1;;;15.0;;
77802;SDS011;66993;48.256;16.422;2023-10-13T06:21:44;30.5;;;18.1;;
77802;SDS011;66993;48.256;16.422;2023-10-13T06:26:47;25.8;;;14.8;;
77802;SDS011;66993;48.256;16.422;2023-10-13T06:31:47;31.6;;;18.4;;
77802;SDS011;66993;48.256;16.422;2023-10-13T06:36:47;25.3;;;15.8;;
77802;SDS011;66993;48.256;16.422;2023-10-13T06:41:49;28.9;;;17.1;;
77802;SDS011;66993;48.256;16.422;2023-10-13T06:46:50;24.6;;;15.3;;
77802;SDS011;66993;48.256;16.422;2023-10-13T06:51:51;27.9;;;15.6;;
77802;SDS011;66993;48.256;16.422;2023-10-13T06:56:53;21.7;;;14.1;;
77802;SDS011;66993;48.256;16.422;2023-10-13T07:01:54;18.1;;;11.9;;
77802;SDS011;66993;48.256;16.422;2023-10-13T07:06:55;20.9;;;12.2;;
77802;SDS011;66993;48.256;16.422;2023-10-13T07:11:58;20.6;;;11.9;;
77802;SDS011;66993;48.256;16.422;2023-10-13T07:16:59;16.6;;;10.5;;
77802;SDS011;66993;48.256;16.422;2023-10-13T07:22:00;19.0;;;10.4;;
77802;SDS011;66993;48.256;16.422;2023-10-13T07:27:00;16.9;;;9.8;;
77802;SDS011;66993;48.256;16.422;2023-10-13T07:32:02;16.0;;;9.3;;
77802;SDS011;66993;48.256;16.422;2023-10-13T07:37:03;16.2;;;9.0;;
77802;SDS011;66993;48.256;16.422;2023-10-13T07:42:05;17.3;;;9.0;;
77802;SDS011;66993;48.256;16.422;2023-10-13T07:47:06;16.8;;;8.3;;
77802;SDS011;66993;48.256;16.422;2023-10-13T07:52:08;12.8;;;8.1;;
77802;SDS011;66993;48.256;16.422;2023-10-13T07:57:08;14.2;;;7.9;;
77802;SDS011;66993;48.256;16.422;2023-10-13T08:02:09;14.6;;;7.9;;
77802;SDS011;66993;48.256;16.422;2023-10-13T08:07:11;14.5;;;7.9;;
77802;SDS011;66993;48.256;16.422;2023-10-13T08:12:17;19.0;;;9.3;;
77802;SDS011;66993;48.256;16.422;2023-10-13T08:17:13;21.3;;;9.1;;
77802;SDS011;66993;48.256;16.422;2023-10-13T08:22:14;15.5;;;8.9;;
77802;SDS011;66993;48.256;16.422;2023-10-13T08:27:19;16.8;;;8.5;;
77802;SDS011;66993;48.256;16.422;2023-10-13T08:32:17;15.1;;;7.3;;
77802;SDS011;66993;48.256;16.422;2023-10-13T08:37:18;13.2;;;6.8;;
77802;SDS011;66993;48.256;16.422;2023-10-13T08:42:19;13.5;;;6.4;;
77802;SDS011;66993;48.256;16.422;2023-10-13T08:47:21;13.0;;;6.5;;
77802;SDS011;66993;48.256;16.422;2023-10-13T08:52:22;13.2;;;6.7;;
77802;SDS011;66993;48.256;16.422;2023-10-13T08:57:24;15.0;;;6.2;;
77802;SDS011;66993;48.256;16.422;2023-10-13T09:02:25;12.3;;;5.8;;
77802;SDS011;66993;48.256;16.422;2023-10-13T09:07:26;14.5;;;5.6;;
77802;SDS011;66993;48.256;16.422;2023-10-13T09:12:27;11.7;;;5.6;;
77802;SDS011;66993;48.256;16.422;2023-10-13T09:17:29;15.0;;;5.9;;
77802;SDS011;66993;48.256;16.422;2023-10-13T09:22:30;10.6;;;5.0;;
77802;SDS011;66993;48.256;16.422;2023-10-13T09:27:32;12.2;;;5.0;;
77802;SDS011;66993;48.256;16.422;2023-10-13T09:32:32;10.5;;;4.8;;
77802;SDS011;66993;48.256;16.422;2023-10-13T09:37:34;9.6;;;4.5;;
77802;SDS011;66993;48.256;16.422;2023-10-13T09:42:35;11.5;;;4.7;;
77802;SDS011;66993;48.256;16.422;2023-10-13T09:47:36;10.2;;;4.1;;
77802;SDS011;66993;48.256;16.422;2023-10-13T09:52:37;11.4;;;4.3;;
77802;SDS011;66993;48.256;16.422;2023-10-13T09:57:41;9.9;;;3.8;;
77802;SDS011;66993;48.256;16.422;2023-10-13T10:02:40;10.8;;;4.2;;
77802;SDS011;66993;48.256;16.422;2023-10-13T10:07:42;7.8;;;3.5;;
77802;SDS011;66993;48.256;16.422;2023-10-13T10:12:44;11.0;;;3.4;;
77802;SDS011;66993;48.256;16.422;2023-10-13T10:17:45;11.9;;;3.7;;
77802;SDS011;66993;48.256;16.422;2023-10-13T10:27:54;8.9;;;3.6;;
77802;SDS011;66993;48.256;16.422;2023-10-13T10:32:53;10.3;;;3.5;;
77802;SDS011;66993;48.256;16.422;2023-10-13T10:37:50;8.3;;;3.7;;
77802;SDS011;66993;48.256;16.422;2023-10-13T10:42:51;11.2;;;3.8;;
77802;SDS011;66993;48.256;16.422;2023-10-13T10:47:52;8.8;;;3.7;;
77802;SDS011;66993;48.256;16.422;2023-10-13T10:52:53;10.3;;;3.5;;
77802;SDS011;66993;48.256;16.422;2023-10-13T10:57:58;9.5;;;3.7;;
77802;SDS011;66993;48.256;16.422;2023-10-13T11:02:56;8.8;;;3.6;;
77802;SDS011;66993;48.256;16.422;2023-10-13T11:07:57;10.4;;;3.7;;
77802;SDS011;66993;48.256;16.422;2023-10-13T11:12:59;10.6;;;3.7;;
77802;SDS011;66993;48.256;16.422;2023-10-13T11:18:00;9.5;;;3.6;;
77802;SDS011;66993;48.256;16.422;2023-10-13T11:23:01;8.2;;;3.5;;
77802;SDS011;66993;48.256;16.422;2023-10-13T11:33:04;10.8;;;3.6;;
77802;SDS011;66993;48.256;16.422;2023-10-13T11:38:05;9.9;;;3.4;;
77802;SDS011;66993;48.256;16.422;2023-10-13T11:43:06;8.9;;;3.9;;
77802;SDS011;66993;48.256;16.422;2023-10-13T11:48:07;9.0;;;3.4;;
77802;SDS011;66993;48.256;16.422;2023-10-13T11:53:09;9.1;;;3.4;;
77802;SDS011;66993;48.256;16.422;2023-10-13T11:58:10;9.7;;;3.7;;
77802;SDS011;66993;48.256;16.422;2023-10-13T12:03:11;10.0;;;3.3;;
77802;SDS011;66993;48.256;16.422;2023-10-13T12:08:13;9.3;;;3.4;;
77802;SDS011;66993;48.256;16.422;2023-10-13T12:13:14;9.8;;;3.2;;
77802;SDS011;66993;48.256;16.422;2023-10-13T12:18:16;9.5;;;3.3;;
77802;SDS011;66993;48.256;16.422;2023-10-13T12:23:17;7.6;;;3.3;;
77802;SDS011;66993;48.256;16.422;2023-10-13T12:28:18;9.5;;;3.5;;
77802;SDS011;66993;48.256;16.422;2023-10-13T12:33:19;7.6;;;3.5;;
77802;SDS011;66993;48.256;16.422;2023-10-13T12:38:21;9.1;;;3.5;;
77802;SDS011;66993;48.256;16.422;2023-10-13T12:43:22;9.3;;;3.5;;
77802;SDS011;66993;48.256;16.422;2023-10-13T12:48:24;9.4;;;3.6;;
77802;SDS011;66993;48.256;16.422;2023-10-13T12:53:24;8.6;;;3.5;;
77802;SDS011;66993;48.256;16.422;2023-10-13T12:58:26;8.5;;;3.7;;
77802;SDS011;66993;48.256;16.422;2023-10-13T13:03:27;11.1;;;4.2;;
77802;SDS011;66993;48.256;16.422;2023-10-13T13:08:28;8.3;;;4.2;;
77802;SDS011;66993;48.256;16.422;2023-10-13T13:13:30;11.4;;;4.6;;
77802;SDS011;66993;48.256;16.422;2023-10-13T13:18:31;8.9;;;4.1;;
77802;SDS011;66993;48.256;16.422;2023-10-13T13:23:33;9.4;;;4.2;;
77802;SDS011;66993;48.256;16.422;2023-10-13T13:28:34;11.4;;;4.5;;
77802;SDS011;66993;48.256;16.422;2023-10-13T13:33:35;10.8;;;4.0;;
77802;SDS011;66993;48.256;16.422;2023-10-13T13:38:36;9.1;;;4.2;;
77802;SDS011;66993;48.256;16.422;2023-10-13T13:43:38;9.3;;;3.8;;
77802;SDS011;66993;48.256;16.422;2023-10-13T13:48:39;10.0;;;4.0;;
77802;SDS011;66993;48.256;16.422;2023-10-13T13:53:40;9.7;;;4.1;;
77802;SDS011;66993;48.256;16.422;2023-10-13T13:58:42;9.8;;;3.9;;
77802;SDS011;66993;48.256;16.422;2023-10-13T14:03:43;10.2;;;4.0;;
77802;SDS011;66993;48.256;16.422;2023-10-13T14:08:45;10.5;;;3.9;;
77802;SDS011;66993;48.256;16.422;2023-10-13T14:13:46;10.2;;;3.8;;
77802;SDS011;66993;48.256;16.422;2023-10-13T14:18:48;9.8;;;4.1;;
77802;SDS011;66993;48.256;16.422;2023-10-13T14:23:49;10.4;;;3.7;;
77802;SDS011;66993;48.256;16.422;2023-10-13T14:28:50;12.8;;;4.3;;
77802;SDS011;66993;48.256;16.422;2023-10-13T14:33:51;8.4;;;3.7;;
77802;SDS011;66993;48.256;16.422;2023-10-13T14:38:52;13.2;;;4.2;;
77802;SDS011;66993;48.256;16.422;2023-10-13T14:43:53;9.2;;;4.0;;
77802;SDS011;66993;48.256;16.422;2023-10-13T14:48:55;11.7;;;3.9;;
77802;SDS011;66993;48.256;16.422;2023-10-13T14:53:56;8.7;;;4.0;;
77802;SDS011;66993;48.256;16.422;2023-10-13T14:58:57;13.5;;;4.1;;
77802;SDS011;66993;48.256;16.422;2023-10-13T15:03:59;13.4;;;4.2;;
77802;SDS011;66993;48.256;16.422;2023-10-13T15:09:00;11.6;;;4.2;;
77802;SDS011;66993;48.256;16.422;2023-10-13T15:14:01;9.2;;;3.9;;
77802;SDS011;66993;48.256;16.422;2023-10-13T15:19:03;10.4;;;4.2;;
77802;SDS011;66993;48.256;16.422;2023-10-13T15:24:04;10.9;;;4.1;;
77802;SDS011;66993;48.256;16.422;2023-10-13T15:29:05;12.5;;;4.2;;
77802;SDS011;66993;48.256;16.422;2023-10-13T15:34:11;10.9;;;4.1;;
77802;SDS011;66993;48.256;16.422;2023-10-13T15:39:08;8.9;;;4.3;;
77802;SDS011;66993;48.256;16.422;2023-10-13T15:44:10;11.5;;;4.4;;
77802;SDS011;66993;48.256;16.422;2023-10-13T15:49:10;8.9;;;3.8;;
77802;SDS011;66993;48.256;16.422;2023-10-13T15:54:11;10.6;;;4.0;;
77802;SDS011;66993;48.256;16.422;2023-10-13T15:59:13;9.2;;;4.1;;
77802;SDS011;66993;48.256;16.422;2023-10-13T16:04:14;9.6;;;4.0;;
77802;SDS011;66993;48.256;16.422;2023-10-13T16:09:15;10.0;;;4.1;;
77802;SDS011;66993;48.256;16.422;2023-10-13T16:14:17;9.5;;;4.1;;
77802;SDS011;66993;48.256;16.422;2023-10-13T16:19:19;12.3;;;4.5;;
77802;SDS011;66993;48.256;16.422;2023-10-13T16:24:19;11.6;;;5.0;;
77802;SDS011;66993;48.256;16.422;2023-10-13T16:29:20;14.5;;;5.4;;
77802;SDS011;66993;48.256;16.422;2023-10-13T16:34:21;15.6;;;5.2;;
77802;SDS011;66993;48.256;16.422;2023-10-13T16:39:23;11.9;;;5.7;;
77802;SDS011;66993;48.256;16.422;2023-10-13T16:44:24;11.7;;;5.1;;
77802;SDS011;66993;48.256;16.422;2023-10-13T16:49:25;10.3;;;4.7;;
77802;SDS011;66993;48.256;16.422;2023-10-13T16:54:26;9.5;;;5.0;;
77802;SDS011;66993;48.256;16.422;2023-10-13T16:59:28;14.1;;;6.6;;
77802;SDS011;66993;48.256;16.422;2023-10-13T17:04:29;13.3;;;6.0;;
77802;SDS011;66993;48.256;16.422;2023-10-13T17:09:30;13.8;;;6.3;;
77802;SDS011;66993;48.256;16.422;2023-10-13T17:14:31;12.0;;;6.6;;
77802;SDS011;66993;48.256;16.422;2023-10-13T17:19:33;16.2;;;6.4;;
77802;SDS011;66993;48.256;16.422;2023-10-13T17:24:34;18.7;;;7.1;;
77802;SDS011;66993;48.256;16.422;2023-10-13T17:29:36;12.9;;;6.2;;
77802;SDS011;66993;48.256;16.422;2023-10-13T17:34:37;14.7;;;7.1;;
77802;SDS011;66993;48.256;16.422;2023-10-13T17:39:38;16.9;;;7.2;;
77802;SDS011;66993;48.256;16.422;2023-10-13T17:44:39;13.2;;;6.5;;
77802;SDS011;66993;48.256;16.422;2023-10-13T17:49:40;16.1;;;7.0;;
77802;SDS011;66993;48.256;16.422;2023-10-13T17:54:42;18.2;;;6.2;;
77802;SDS011;66993;48.256;16.422;2023-10-13T17:59:43;15.4;;;7.2;;
77802;SDS011;66993;48.256;16.422;2023-10-13T18:04:44;18.6;;;8.0;;
77802;SDS011;66993;48.256;16.422;2023-10-13T18:09:46;15.3;;;7.9;;
77802;SDS011;66993;48.256;16.422;2023-10-13T18:14:47;17.2;;;9.1;;
77802;SDS011;66993;48.256;16.422;2023-10-13T18:19:48;14.2;;;7.4;;
77802;SDS011;66993;48.256;16.422;2023-10-13T18:24:49;14.9;;;7.4;;
77802;SDS011;66993;48.256;16.422;2023-10-13T18:29:51;15.5;;;7.5;;
77802;SDS011;66993;48.256;16.422;2023-10-13T18:34:52;16.0;;;7.5;;
77802;SDS011;66993;48.256;16.422;2023-10-13T18:39:53;15.5;;;7.2;;
77802;SDS011;66993;48.256;16.422;2023-10-13T18:44:54;17.1;;;8.1;;
77802;SDS011;66993;48.256;16.422;2023-10-13T18:49:56;14.1;;;7.0;;
77802;SDS011;66993;48.256;16.422;2023-10-13T18:54:57;14.0;;;7.3;;
77802;SDS011;66993;48.256;16.422;2023-10-13T18:59:59;19.0;;;8.0;;
77802;SDS011;66993;48.256;16.422;2023-10-13T19:04:59;13.3;;;6.9;;
77802;SDS011;66993;48.256;16.422;2023-10-13T19:10:01;14.2;;;6.8;;
77802;SDS011;66993;48.256;16.422;2023-10-13T19:15:02;12.5;;;7.1;;
77802;SDS011;66993;48.256;16.422;2023-10-13T19:20:03;15.5;;;7.5;;
77802;SDS011;66993;48.256;16.422;2023-10-13T19:25:05;15.7;;;6.9;;
77802;SDS011;66993;48.256;16.422;2023-10-13T19:30:06;15.1;;;7.4;;
77802;SDS011;66993;48.256;16.422;2023-10-13T19:35:07;14.0;;;7.7;;
77802;SDS011;66993;48.256;16.422;2023-10-13T19:40:09;17.7;;;9.5;;
77802;SDS011;66993;48.256;16.422;2023-10-13T19:45:10;18.9;;;8.6;;
77802;SDS011;66993;48.256;16.422;2023-10-13T19:50:11;15.1;;;7.8;;
77802;SDS011;66993;48.256;16.422;2023-10-13T19:55:13;17.6;;;8.4;;
77802;SDS011;66993;48.256;16.422;2023-10-13T20:00:14;18.2;;;8.7;;
77802;SDS011;66993;48.256;16.422;2023-10-13T20:05:15;19.5;;;9.6;;
77802;SDS011;66993;48.256;16.422;2023-10-13T20:10:16;17.6;;;8.7;;
77802;SDS011;66993;48.256;16.422;2023-10-13T20:15:18;18.3;;;8.1;;
77802;SDS011;66993;48.256;16.422;2023-10-13T20:20:19;19.6;;;9.0;;
77802;SDS011;66993;48.256;16.422;2023-10-13T20:25:20;15.9;;;8.3;;
77802;SDS011;66993;48.256;16.422;2023-10-13T20:30:21;20.4;;;10.5;;
77802;SDS011;66993;48.256;16.422;2023-10-13T20:35:23;19.5;;;9.9;;
77802;SDS011;66993;48.256;16.422;2023-10-13T20:40:24;18.4;;;9.4;;
77802;SDS011;66993;48.256;16.422;2023-10-13T20:45:25;18.7;;;9.2;;
77802;SDS011;66993;48.256;16.422;2023-10-13T20:50:27;19.3;;;9.2;;
77802;SDS011;66993;48.256;16.422;2023-10-13T20:55:28;13.7;;;8.5;;
77802;SDS011;66993;48.256;16.422;2023-10-13T21:00:30;17.2;;;9.4;;
77802;SDS011;66993;48.256;16.422;2023-10-13T21:05:30;17.8;;;8.9;;
77802;SDS011;66993;48.256;16.422;2023-10-13T21:10:33;20.2;;;10.5;;
77802;SDS011;66993;48.256;16.422;2023-10-13T21:15:33;17.6;;;9.1;;
77802;SDS011;66993;48.256;16.422;2023-10-13T21:20:35;20.8;;;10.6;;
77802;SDS011;66993;48.256;16.422;2023-10-13T21:25:36;21.5;;;10.7;;
77802;SDS011;66993;48.256;16.422;2023-10-13T21:30:37;18.9;;;9.3;;
77802;SDS011;66993;48.256;16.422;2023-10-13T21:35:38;18.9;;;9.9;;
77802;SDS011;66993;48.256;16.422;2023-10-13T21:40:40;24.0;;;12.5;;
77802;SDS011;66993;48.256;16.422;2023-10-13T21:45:41;25.8;;;12.3;;
77802;SDS011;66993;48.256;16.422;2023-10-13T21:50:42;25.0;;;12.8;;
77802;SDS011;66993;48.256;16.422;2023-10-13T21:55:43;24.7;;;12.4;;
77802;SDS011;66993;48.256;16.422;2023-10-13T22:00:45;21.7;;;11.9;;
77802;SDS011;66993;48.256;16.422;2023-10-13T22:05:46;20.6;;;11.1;;
77802;SDS011;66993;48.256;16.422;2023-10-13T22:10:48;24.6;;;12.5;;
77802;SDS011;66993;48.256;16.422;2023-10-13T22:15:49;22.3;;;11.3;;
77802;SDS011;66993;48.256;16.422;2023-10-13T22:20:50;26.5;;;12.9;;
77802;SDS011;66993;48.256;16.422;2023-10-13T22:25:51;29.0;;;14.4;;
77802;SDS011;66993;48.256;16.422;2023-10-13T22:30:53;25.6;;;12.9;;
77802;SDS011;66993;48.256;16.422;2023-10-13T22:35:54;26.2;;;13.2;;
77802;SDS011;66993;48.256;16.422;2023-10-13T22:40:55;25.9;;;13.7;;
77802;SDS011;66993;48.256;16.422;2023-10-13T22:45:57;23.9;;;12.5;;
77802;SDS011;66993;48.256;16.422;2023-10-13T22:50:58;32.6;;;15.0;;
77802;SDS011;66993;48.256;16.422;2023-10-13T22:55:59;23.0;;;12.4;;
77802;SDS011;66993;48.256;16.422;2023-10-13T23:01:00;26.4;;;12.2;;
77802;SDS011;66993;48.256;16.422;2023-10-13T23:06:03;31.3;;;16.2;;
77802;SDS011;66993;48.256;16.422;2023-10-13T23:11:03;23.4;;;12.4;;
77802;SDS011;66993;48.256;16.422;2023-10-13T23:16:05;30.5;;;14.1;;
77802;SDS011;66993;48.256;16.422;2023-10-13T23:21:06;27.6;;;13.7;;
77802;SDS011;66993;48.256;16.422;2023-10-13T23:26:08;24.9;;;12.6;;
77802;SDS011;66993;48.256;16.422;2023-10-13T23:31:08;32.9;;;17.0;;
77802;SDS011;66993;48.256;16.422;2023-10-13T23:36:10;28.3;;;14.9;;
77802;SDS011;66993;48.256;16.422;2023-10-13T23:41:11;35.1;;;17.0;;
77802;SDS011;66993;48.256;16.422;2023-10-13T23:46:12;30.9;;;14.7;;
77802;SDS011;66993;48.256;16.422;2023-10-13T23:51:14;35.3;;;16.8;;
77802;SDS011;66993;48.256;16.422;2023-10-13T23:56:15;33.8;;;15.8;;
